Time,TemperatureF,DewpointF,PressureIn,WindDirection,WindDirectionDegrees,WindSpeedMPH,WindSpeedGustMPH,Humidity,HourlyPrecipIn,Conditions,Clouds,dailyrainin,SolarRadiationWatts/m^2,SoftwareType,DateUTC
2013-04-13 00:24:00,16.0,-1.0,-100.00,NNE,19,5.0,11.0,47,0.00,,,0.00,0.000000,,2013-04-13 08:24:00,
2013-04-13 00:33:00,16.0,-1.0,-100.00,NNE,19,5.0,11.0,47,0.00,,,0.00,0.000000,,2013-04-13 08:33:00,
2013-04-13 00:44:00,16.0,-1.0,-100.00,NNE,19,5.0,11.0,47,0.00,,,0.00,0.000000,,2013-04-13 08:44:00,
2013-04-13 00:53:00,16.0,-1.0,-100.00,NNE,19,5.0,11.0,47,0.00,,,0.00,0.000000,,2013-04-13 08:53:00,
2013-04-13 01:23:00,14.0,-1.0,-100.00,NNE,26,4.0,11.0,50,0.00,,,0.00,0.000000,,2013-04-13 09:23:00,
2013-04-13 01:35:00,14.0,-1.0,-100.00,NNE,26,4.0,11.0,50,0.00,,,0.00,0.000000,,2013-04-13 09:35:00,
2013-04-13 01:46:00,14.0,-1.0,-100.00,NNE,26,4.0,11.0,50,0.00,,,0.00,0.000000,,2013-04-13 09:46:00,
2013-04-13 01:53:00,14.0,-1.0,-100.00,NNE,26,4.0,11.0,50,0.00,,,0.00,0.000000,,2013-04-13 09:53:00,
2013-04-13 02:35:00,11.0,-2.0,-100.00,NE,46,2.0,9.0,56,0.00,,,0.00,0.000000,,2013-04-13 10:35:00,
2013-04-13 02:44:00,11.0,-2.0,-100.00,NE,46,2.0,9.0,56,0.00,,,0.00,0.000000,,2013-04-13 10:44:00,
2013-04-13 03:23:00,12.0,-1.0,-100.00,NE,42,5.0,8.0,55,0.00,,,0.00,0.000000,,2013-04-13 11:23:00,
2013-04-13 03:33:00,12.0,-1.0,-100.00,NE,42,5.0,8.0,55,0.00,,,0.00,0.000000,,2013-04-13 11:33:00,
2013-04-13 03:44:00,12.0,-1.0,-100.00,NE,42,5.0,8.0,55,0.00,,,0.00,0.000000,,2013-04-13 11:44:00,
2013-04-13 03:52:00,12.0,-1.0,-100.00,NE,42,5.0,8.0,55,0.00,,,0.00,0.000000,,2013-04-13 11:52:00,
2013-04-13 04:23:00,12.0,-2.0,-100.00,NE,42,5.0,9.0,52,0.00,,,0.00,0.000000,,2013-04-13 12:23:00,
2013-04-13 04:34:00,12.0,-2.0,-100.00,NE,42,5.0,9.0,52,0.00,,,0.00,0.000000,,2013-04-13 12:34:00,
2013-04-13 04:45:00,12.0,-2.0,-100.00,NE,42,5.0,9.0,52,0.00,,,0.00,0.000000,,2013-04-13 12:45:00,
2013-04-13 04:53:00,12.0,-2.0,-100.00,NE,42,5.0,9.0,52,0.00,,,0.00,0.000000,,2013-04-13 12:53:00,
2013-04-13 05:24:00,10.0,-2.0,-100.00,NE,34,3.0,7.0,58,0.00,,,-99.99,0.000000,,2013-04-13 13:24:00,
2013-04-13 05:33:00,10.0,-2.0,-100.00,NE,34,3.0,7.0,58,0.00,,,-99.99,0.000000,,2013-04-13 13:33:00,
2013-04-13 05:45:00,10.0,-2.0,-100.00,NE,34,3.0,7.0,58,0.00,,,-99.99,0.000000,,2013-04-13 13:45:00,
2013-04-13 05:53:00,10.0,-2.0,-100.00,NE,34,3.0,7.0,58,0.00,,,-99.99,0.000000,,2013-04-13 13:53:00,
2013-04-13 06:23:00,10.0,-2.0,-100.00,SSW,196,1.0,5.0,57,0.00,,,0.00,0.000000,,2013-04-13 14:23:00,
2013-04-13 06:35:00,10.0,-2.0,-100.00,SSW,196,1.0,5.0,57,0.00,,,0.00,0.000000,,2013-04-13 14:35:00,
2013-04-13 06:44:00,10.0,-2.0,-100.00,SSW,196,1.0,5.0,57,0.00,,,0.00,0.000000,,2013-04-13 14:44:00,
2013-04-13 07:43:00,10.0,-3.0,-100.00,NE,50,1.0,4.0,55,0.00,,,0.00,1.000000,,2013-04-13 15:43:00,
2013-04-13 07:53:00,10.0,-3.0,-100.00,NE,50,1.0,4.0,55,0.00,,,0.00,1.000000,,2013-04-13 15:53:00,
2013-04-13 08:24:00,11.0,-2.0,-100.00,NNE,18,2.0,3.0,55,0.00,,,0.00,9.000000,,2013-04-13 16:24:00,
2013-04-13 08:34:00,11.0,-2.0,-100.00,NNE,18,2.0,3.0,55,0.00,,,0.00,9.000000,,2013-04-13 16:34:00,
2013-04-13 08:44:00,11.0,-2.0,-100.00,NNE,18,2.0,3.0,55,0.00,,,0.00,9.000000,,2013-04-13 16:44:00,
2013-04-13 08:53:00,11.0,-2.0,-100.00,NNE,18,2.0,3.0,55,0.00,,,0.00,9.000000,,2013-04-13 16:53:00,
2013-04-13 09:24:00,17.0,0.0,-100.00,SSE,153,4.0,5.0,47,0.00,,,0.00,54.000000,,2013-04-13 17:24:00,
2013-04-13 10:24:00,20.0,0.0,-100.00,SW,222,4.0,7.0,40,0.00,,,0.00,118.000000,,2013-04-13 18:24:00,
2013-04-13 10:32:00,20.0,0.0,-100.00,SW,222,4.0,7.0,40,0.00,,,0.00,118.000000,,2013-04-13 18:32:00,
2013-04-13 10:42:00,20.0,0.0,-100.00,SW,222,4.0,7.0,40,0.00,,,0.00,118.000000,,2013-04-13 18:42:00,
2013-04-13 10:52:00,20.0,0.0,-100.00,SW,222,4.0,7.0,40,0.00,,,0.00,118.000000,,2013-04-13 18:52:00,
2013-04-13 11:22:00,23.0,3.0,-100.00,WSW,242,5.0,8.0,42,0.00,,,0.00,158.000000,,2013-04-13 19:22:00,
2013-04-13 11:42:00,23.0,3.0,-100.00,WSW,242,5.0,8.0,42,0.00,,,0.00,158.000000,,2013-04-13 19:42:00,
2013-04-13 11:52:00,23.0,3.0,-100.00,WSW,242,5.0,8.0,42,0.00,,,0.00,158.000000,,2013-04-13 19:52:00,
2013-04-13 12:22:00,26.0,4.0,-100.00,West,262,3.0,7.0,39,0.00,,,0.00,204.000000,,2013-04-13 20:22:00,
2013-04-13 13:22:00,28.0,3.0,-100.00,NW,317,5.0,8.0,33,0.00,,,0.00,249.000000,,2013-04-13 21:22:00,
2013-04-13 13:32:00,28.0,3.0,-100.00,NW,317,5.0,8.0,33,0.00,,,0.00,249.000000,,2013-04-13 21:32:00,
2013-04-13 13:43:00,28.0,3.0,-100.00,NW,317,5.0,8.0,33,0.00,,,0.00,249.000000,,2013-04-13 21:43:00,
2013-04-13 13:52:00,28.0,3.0,-100.00,NW,317,5.0,8.0,33,0.00,,,0.00,249.000000,,2013-04-13 21:52:00,
2013-04-13 14:22:00,30.0,2.0,-100.00,NNW,327,5.0,10.0,29,0.00,,,0.00,299.000000,,2013-04-13 22:22:00,
2013-04-13 14:33:00,30.0,2.0,-100.00,NNW,327,5.0,10.0,29,0.00,,,0.00,299.000000,,2013-04-13 22:33:00,
2013-04-13 14:42:00,30.0,2.0,-100.00,NNW,327,5.0,10.0,29,0.00,,,0.00,299.000000,,2013-04-13 22:42:00,
2013-04-13 14:52:00,30.0,2.0,-100.00,NNW,327,5.0,10.0,29,0.00,,,0.00,299.000000,,2013-04-13 22:52:00,
2013-04-13 15:22:00,30.0,6.0,-100.00,SW,236,5.0,9.0,36,0.00,,,0.00,686.000000,,2013-04-13 23:22:00,
2013-04-13 15:32:00,30.0,6.0,-100.00,SW,236,5.0,9.0,36,0.00,,,0.00,686.000000,,2013-04-13 23:32:00,
2013-04-13 15:41:00,30.0,6.0,-100.00,SW,236,5.0,9.0,36,0.00,,,0.00,686.000000,,2013-04-13 23:41:00,
2013-04-13 15:52:00,30.0,6.0,-100.00,SW,236,5.0,9.0,36,0.00,,,0.00,686.000000,,2013-04-13 23:52:00,
2013-04-13 16:22:00,32.0,7.0,-100.00,WSW,256,5.0,9.0,35,0.00,,,0.00,654.000000,,2013-04-14 00:22:00,
2013-04-13 16:32:00,32.0,7.0,-100.00,WSW,256,5.0,9.0,35,0.00,,,0.00,654.000000,,2013-04-14 00:32:00,
2013-04-13 16:42:00,32.0,7.0,-100.00,WSW,256,5.0,9.0,35,0.00,,,0.00,654.000000,,2013-04-14 00:42:00,
2013-04-13 16:52:00,32.0,7.0,-100.00,WSW,256,5.0,9.0,35,0.00,,,0.00,654.000000,,2013-04-14 00:52:00,
2013-04-13 17:22:00,31.0,8.0,-100.00,West,266,4.0,9.0,37,0.00,,,0.00,578.000000,,2013-04-14 01:22:00,
2013-04-13 17:32:00,31.0,8.0,-100.00,West,266,4.0,9.0,37,0.00,,,0.00,578.000000,,2013-04-14 01:32:00,
2013-04-13 17:42:00,31.0,8.0,-100.00,West,266,4.0,9.0,37,0.00,,,0.00,578.000000,,2013-04-14 01:42:00,
2013-04-13 17:52:00,31.0,8.0,-100.00,West,266,4.0,9.0,37,0.00,,,0.00,578.000000,,2013-04-14 01:52:00,
2013-04-13 18:22:00,33.0,6.0,-100.00,NNW,333,5.0,11.0,32,0.00,,,0.00,462.000000,,2013-04-14 02:22:00,
2013-04-13 18:32:00,33.0,6.0,-100.00,NNW,333,5.0,11.0,32,0.00,,,0.00,462.000000,,2013-04-14 02:32:00,
2013-04-13 18:42:00,33.0,6.0,-100.00,NNW,333,5.0,11.0,32,0.00,,,0.00,462.000000,,2013-04-14 02:42:00,
2013-04-13 18:52:00,33.0,6.0,-100.00,NNW,333,5.0,11.0,32,0.00,,,0.00,462.000000,,2013-04-14 02:52:00,
2013-04-13 19:33:00,31.0,11.0,-100.00,WSW,254,4.0,11.0,43,0.00,,,0.00,337.000000,,2013-04-14 03:33:00,
2013-04-13 19:42:00,31.0,11.0,-100.00,WSW,254,4.0,11.0,43,0.00,,,0.00,337.000000,,2013-04-14 03:42:00,
2013-04-13 19:53:00,31.0,11.0,-100.00,WSW,254,4.0,11.0,43,0.00,,,0.00,337.000000,,2013-04-14 03:53:00,
2013-04-13 20:22:00,27.0,6.0,-100.00,SW,215,3.0,8.0,40,0.00,,,0.00,198.000000,,2013-04-14 04:22:00,
2013-04-13 20:32:00,27.0,6.0,-100.00,SW,215,3.0,8.0,40,0.00,,,0.00,198.000000,,2013-04-14 04:32:00,
2013-04-13 20:42:00,27.0,6.0,-100.00,SW,215,3.0,8.0,40,0.00,,,0.00,198.000000,,2013-04-14 04:42:00,
2013-04-13 20:52:00,27.0,6.0,-100.00,SW,215,3.0,8.0,40,0.00,,,0.00,198.000000,,2013-04-14 04:52:00,
2013-04-13 21:22:00,22.0,8.0,-100.00,SSW,200,1.0,5.0,54,0.00,,,0.00,45.000000,,2013-04-14 05:22:00,
2013-04-13 21:32:00,22.0,8.0,-100.00,SSW,200,1.0,5.0,54,0.00,,,0.00,45.000000,,2013-04-14 05:32:00,
2013-04-13 21:42:00,22.0,8.0,-100.00,SSW,200,1.0,5.0,54,0.00,,,0.00,45.000000,,2013-04-14 05:42:00,
2013-04-13 21:52:00,22.0,8.0,-100.00,SSW,200,1.0,5.0,54,0.00,,,0.00,45.000000,,2013-04-14 05:52:00,
2013-04-13 22:22:00,20.0,9.0,-100.00,East,96,2.0,3.0,62,0.00,,,0.00,5.000000,,2013-04-14 06:22:00,
2013-04-13 22:32:00,20.0,9.0,-100.00,East,96,2.0,3.0,62,0.00,,,0.00,5.000000,,2013-04-14 06:32:00,
2013-04-13 22:42:00,20.0,9.0,-100.00,East,96,2.0,3.0,62,0.00,,,0.00,5.000000,,2013-04-14 06:42:00,
2013-04-13 22:52:00,20.0,9.0,-100.00,East,96,2.0,3.0,62,0.00,,,0.00,5.000000,,2013-04-14 06:52:00,
2013-04-13 23:22:00,22.0,8.0,-100.00,ENE,69,4.0,5.0,54,0.00,,,0.00,0.000000,,2013-04-14 07:22:00,
2013-04-13 23:32:00,22.0,8.0,-100.00,ENE,69,4.0,5.0,54,0.00,,,0.00,0.000000,,2013-04-14 07:32:00,
2013-04-13 23:42:00,22.0,8.0,-100.00,ENE,69,4.0,5.0,54,0.00,,,0.00,0.000000,,2013-04-14 07:42:00,
2013-04-13 23:52:00,22.0,8.0,-100.00,ENE,69,4.0,5.0,54,0.00,,,0.00,0.000000,,2013-04-14 07:52:00,